Kankakee, IL

9:02 PM CDT on September 23, 2017 (GMT -0500)
Greater Kankakee

Weather History for KIKK - November, 2013

Change the Weather History Date:

Monday, November 11, 2013

  Actual Average Record
Temperature  
Mean Temperature 38 °F -  
Max Temperature 48 °F 50 °F 73 °F (2010)
Min Temperature 26 °F 31 °F 20 °F (1973)
Degree Days  
Heating Degree Days 28    
Moisture  
Dew Point 32 °F    
Average Humidity 77    
Maximum Humidity 96    
Minimum Humidity 63    
Precipitation  
Precipitation 0.09 in - - ()
Sea Level Pressure  
Sea Level Pressure 30.23 in    
Wind  
Wind Speed 9 mph (WNW)    
Max Wind Speed 16 mph    
Max Gust Speed 24 mph    
Visibility 8 miles    
Events Rain , Snow    
Averages and records for this station are not official NWS values.
T = Trace of Precipitation, MM = Missing Value Source: NWS Daily Summary

Daily Weather History Graph

Daily Weather History Graph

Search for Another Location

Airport or City:

Trip Planner

Search our weather history database for the weather conditions in past years. The results will help you decide how hot, cold, wet, or windy it might be!

Date:

Astronomy

Nov. 11, 2013 Rise Set
Actual Time 6:34 AM CST 4:35 PM CST
Civil Twilight 6:05 AM CST 5:05 PM CST
Nautical Twilight 5:32 AM CST 5:38 PM CST
Astronomical Twilight 4:59 AM CST 6:10 PM CST
Moon 1:19 PM CST (11/11) 12:16 AM CST (11/11)
Length of Visible Light 10h 59m
Length of Day
10h 01m
Waxing Gibbous, 66% of the Moon is Illuminated
Nov 11
Waxing Gibbous
Nov 17
Full
Nov 25
Last Quarter
Dec 2
New
Dec 9
First Quarter

Hourly Weather History & Observations

Time (CST) Temp. Windchill Dew Point Humidity Pressure Visibility Wind Dir Wind Speed Gust Speed Precip Events Conditions
12:15 AM 40.3 °F 37.1 °F 32.7 °F 74% 30.24 in 10.0 mi SSW 4.6 mph - N/A   Overcast
12:35 AM 40.1 °F 36.9 °F 33.3 °F 77% 30.25 in 10.0 mi WSW 4.6 mph - N/A   Overcast
12:55 AM 40.6 °F 34.8 °F 32.4 °F 72% 30.24 in 10.0 mi SSW 9.2 mph - N/A   Overcast
1:15 AM 40.1 °F 35.3 °F 32.5 °F 74% 30.24 in 10.0 mi SSW 6.9 mph - N/A   Overcast
1:35 AM 40.6 °F 35.4 °F 32.5 °F 73% 30.23 in 10.0 mi SSW 8.1 mph - N/A   Overcast
1:55 AM 40.3 °F 35.5 °F 32.5 °F 74% 30.22 in 10.0 mi SSW 6.9 mph - N/A   Overcast
2:15 AM 40.5 °F 35.8 °F 32.2 °F 72% 30.21 in 10.0 mi SSW 6.9 mph - N/A   Overcast
2:35 AM 40.6 °F 36.0 °F 32.2 °F 72% 30.20 in 10.0 mi SSW 6.9 mph - N/A   Overcast
2:55 AM 41.0 °F 37.1 °F 32.5 °F 72% 30.20 in 10.0 mi SSW 5.8 mph - N/A   Overcast
3:15 AM 40.6 °F 34.8 °F 32.4 °F 72% 30.19 in 10.0 mi SSW 9.2 mph - N/A   Overcast
3:35 AM 40.6 °F 36.0 °F 32.5 °F 73% 30.19 in 10.0 mi SSW 6.9 mph - N/A   Overcast
3:55 AM 40.3 °F 34.4 °F 32.5 °F 74% 30.17 in 10.0 mi South 9.2 mph - N/A   Overcast
4:15 AM 40.3 °F 33.9 °F 32.5 °F 74% 30.17 in 10.0 mi South 10.4 mph - N/A   Overcast
4:35 AM 41.0 °F 34.3 °F 32.7 °F 72% 30.16 in 10.0 mi South 11.5 mph - N/A   Overcast
4:55 AM 41.2 °F 35.0 °F 33.1 °F 73% 30.16 in 10.0 mi South 10.4 mph - N/A   Overcast
5:15 AM 41.7 °F 36.1 °F 33.3 °F 72% 30.16 in 10.0 mi SSW 9.2 mph - N/A   Overcast
5:35 AM 42.3 °F 36.8 °F 33.3 °F 70% 30.14 in 10.0 mi SSW 9.2 mph - N/A   Overcast
5:55 AM 42.1 °F 36.1 °F 33.6 °F 72% 30.14 in 10.0 mi South 10.4 mph - N/A   Overcast
6:15 AM 42.8 °F 37.0 °F 33.3 °F 69% 30.13 in 10.0 mi South 10.4 mph - N/A   Overcast
6:35 AM 43.3 °F 36.8 °F 33.6 °F 69% 30.13 in 10.0 mi SSW 12.7 mph - N/A   Overcast
6:55 AM 43.7 °F 37.3 °F 33.8 °F 68% 30.12 in 10.0 mi SSW 12.7 mph 16.1 mph N/A   Overcast
7:15 AM 44.1 °F 37.7 °F 34.0 °F 68% 30.12 in 10.0 mi SSW 12.7 mph 16.1 mph N/A   Overcast
7:35 AM 44.6 °F 39.2 °F 34.3 °F 67% 30.12 in 10.0 mi SSW 10.4 mph - N/A   Overcast
7:55 AM 44.8 °F 39.0 °F 34.7 °F 68% 30.12 in 10.0 mi SSW 11.5 mph - N/A   Overcast
8:15 AM 45.0 °F 38.5 °F 34.9 °F 68% 30.12 in 10.0 mi SSW 13.8 mph - N/A   Overcast
8:35 AM 45.3 °F 39.3 °F 35.1 °F 67% 30.12 in 10.0 mi SSW 12.7 mph 18.4 mph N/A   Overcast
8:55 AM 45.5 °F 43.2 °F 35.2 °F 67% 30.14 in 10.0 mi West 4.6 mph - N/A   Overcast
9:15 AM 46.0 °F 42.5 °F 35.6 °F 67% 30.14 in 10.0 mi WSW 6.9 mph - N/A   Overcast
9:35 AM 46.4 °F 43.5 °F 36.5 °F 68% 30.14 in 10.0 mi WSW 5.8 mph - N/A   Overcast
9:55 AM 47.3 °F - 36.1 °F 65% 30.14 in 10.0 mi West 4.6 mph - N/A   Overcast
10:15 AM 47.5 °F - 36.0 °F 64% 30.14 in 10.0 mi West 9.2 mph - N/A   Overcast
10:35 AM 47.5 °F - 36.1 °F 65% 30.13 in 10.0 mi WSW 8.1 mph - N/A   Overcast
10:55 AM 47.8 °F - 36.3 °F 64% 30.12 in 10.0 mi West 6.9 mph - N/A   Overcast
11:15 AM 48.2 °F - 36.3 °F 63% 30.13 in 10.0 mi West 9.2 mph - N/A   Overcast
11:35 AM 47.5 °F - 36.5 °F 66% 30.12 in 10.0 mi West 5.8 mph - N/A   Overcast
11:55 AM 47.5 °F - 37.2 °F 68% 30.12 in 10.0 mi West 6.9 mph - N/A   Overcast
12:15 PM 47.3 °F - 35.6 °F 64% 30.12 in 10.0 mi NNW 8.1 mph - N/A Rain Light Rain
12:35 PM 45.7 °F 39.8 °F 36.7 °F 71% 30.13 in 10.0 mi NW 12.7 mph - N/A   Overcast
12:55 PM 43.2 °F 37.0 °F 39.7 °F 88% 30.14 in 5.0 mi NNW 11.5 mph - N/A   Drizzle
1:15 PM 42.3 °F 37.3 °F 40.1 °F 92% 30.14 in 5.0 mi NNW 8.1 mph - N/A   Light Drizzle
1:35 PM 41.9 °F 36.3 °F 39.9 °F 93% 30.15 in 4.0 mi NNW 9.2 mph 16.1 mph N/A   Drizzle
1:55 PM 41.4 °F 36.8 °F 40.1 °F 95% 30.16 in 3.0 mi NNW 6.9 mph - 0.01 in   Drizzle
2:15 PM 41.0 °F 34.3 °F 39.4 °F 94% 30.17 in 3.0 mi NNW 11.5 mph 16.1 mph 0.01 in Rain Light Rain
2:35 PM 40.6 °F 36.0 °F 38.7 °F 93% 30.17 in 7.0 mi NNW 6.9 mph - 0.02 in Rain Light Rain
2:55 PM 39.2 °F 32.5 °F 37.2 °F 93% 30.19 in 7.0 mi North 10.4 mph 18.4 mph 0.03 in Rain Light Rain
3:15 PM 37.0 °F 28.1 °F 34.9 °F 92% 30.20 in 10.0 mi North 15.0 mph 24.2 mph 0.01 in Rain Light Rain
3:35 PM 36.0 °F 26.3 °F 34.0 °F 93% 30.22 in 7.0 mi North 16.1 mph 23.0 mph 0.03 in Rain Light Rain
3:55 PM 35.1 °F 26.9 °F 33.3 °F 93% 30.23 in 10.0 mi North 11.5 mph 19.6 mph 0.04 in Rain Light Rain
4:15 PM 33.8 °F 26.4 °F 32.4 °F 94% 30.24 in 4.0 mi North 9.2 mph - 0.01 in   Overcast
4:35 PM 33.1 °F 26.1 °F 32.0 °F 96% 30.24 in 2.5 mi North 8.1 mph - 0.01 in Snow Light Snow
4:55 PM 32.9 °F 25.3 °F 32.0 °F 96% 30.26 in 4.0 mi North 9.2 mph 16.1 mph 0.01 in Snow Light Snow
5:15 PM 32.9 °F 25.3 °F 32.0 °F 96% 30.27 in 3.0 mi North 9.2 mph - N/A Snow Light Snow
5:35 PM 32.2 °F 22.3 °F 30.7 °F 94% 30.29 in 2.5 mi North 13.8 mph 21.9 mph N/A Snow Light Snow
5:55 PM 32.0 °F 22.5 °F 30.6 °F 94% 30.31 in 2.5 mi North 12.7 mph 20.7 mph N/A Snow Light Snow
6:15 PM 31.6 °F 23.1 °F 29.8 °F 93% 30.32 in 2.0 mi North 10.4 mph 21.9 mph N/A Snow Light Snow
6:35 PM 31.1 °F 20.9 °F 29.7 °F 94% 30.33 in 2.5 mi North 13.8 mph 20.7 mph N/A Snow Light Snow
6:55 PM 31.1 °F 23.7 °F 29.3 °F 93% 30.34 in 2.0 mi North 8.1 mph 16.1 mph N/A Snow Light Snow
7:15 PM 30.7 °F 22.6 °F 28.9 °F 93% 30.35 in 5.0 mi NNW 9.2 mph - N/A Snow Light Snow
7:35 PM 30.6 °F 21.2 °F 27.1 °F 87% 30.36 in 10.0 mi NNW 11.5 mph 17.3 mph N/A   Overcast
7:55 PM 30.0 °F 20.5 °F 24.6 °F 80% 30.37 in 10.0 mi NNW 11.5 mph 19.6 mph N/A   Overcast
8:15 PM 29.7 °F 19.6 °F 23.2 °F 77% 30.38 in 10.0 mi NNW 12.7 mph 19.6 mph N/A   Mostly Cloudy
8:35 PM 29.3 °F 20.8 °F 23.0 °F 77% 30.39 in 10.0 mi NNW 9.2 mph - N/A   Scattered Clouds
8:55 PM 29.3 °F 19.1 °F 22.6 °F 76% 30.40 in 10.0 mi NNW 12.7 mph 19.6 mph N/A   Clear
9:15 PM 28.9 °F 18.6 °F 22.5 °F 77% 30.41 in 10.0 mi NNW 12.7 mph 19.6 mph N/A   Clear
9:35 PM 28.9 °F 18.6 °F 21.9 °F 75% 30.42 in 10.0 mi NNW 12.7 mph 19.6 mph N/A   Clear
9:55 PM 28.6 °F 19.3 °F 20.5 °F 72% 30.43 in 10.0 mi NNW 10.4 mph 21.9 mph N/A   Clear
10:15 PM 28.4 °F 18.5 °F 20.1 °F 71% 30.44 in 10.0 mi NNW 11.5 mph 19.6 mph N/A   Clear
10:35 PM 28.0 °F 17.0 °F 20.3 °F 73% 30.44 in 10.0 mi NNW 13.8 mph 19.6 mph N/A   Clear
10:55 PM 27.5 °F 18.0 °F 19.8 °F 73% 30.45 in 10.0 mi NNW 10.4 mph 18.4 mph N/A   Clear
11:15 PM 27.1 °F 16.9 °F 19.4 °F 73% 30.46 in 10.0 mi NNW 11.5 mph - N/A   Clear
11:35 PM 27.0 °F 15.6 °F 18.9 °F 72% 30.47 in 10.0 mi NNW 13.8 mph 20.7 mph N/A   Clear
11:55 PM 26.2 °F 16.4 °F 18.5 °F 73% 30.48 in 10.0 mi NNW 10.4 mph 18.4 mph N/A   Clear